Upton, Wyoming
Current Conditions -  °F | °C
As of 12:55 AM on Sunday 26 Oct 2014 (Local Time) from KECS Reporting Station
Clear Clear  
Wind Chill: 59°   Ceiling: Unl
Heat Index: 59°   Visibility: 10mi
Dew Point: 30°   Wind: 17mph
Humidity: 34%   Direction: 110°ESE
Pressure: 29.81"   Gusts: 25mph
Location:  44.1°N, 104.63°W
Report Text: KECS 260655Z AUTO 11015G22KT 10SM CLR 15/M01 A2981 RMK AO2
Loading
Personal Weather Stations






























Interactive Weather Map
Tropical Storm Tracking
New forecast layout! Learn more

10-Day Weather Forecast

Advertisements
Track Severe Weather on mobile